createdAt,value
2023-04-30T00:00:47.766Z,33.30
2023-04-30T00:03:34.836Z,37.80
2023-04-30T00:06:02.828Z,30.70
2023-04-30T00:08:30.722Z,29.50
2023-04-30T00:10:58.811Z,29.20
2023-04-30T00:13:26.744Z,29.50
2023-04-30T00:15:54.544Z,33.60
2023-04-30T00:18:22.696Z,25.80
2023-04-30T00:20:52.314Z,26.00
2023-04-30T00:23:20.310Z,33.30
2023-04-30T00:25:48.125Z,26.30
2023-04-30T00:28:15.939Z,24.20
2023-04-30T00:30:47.726Z,29.70
2023-04-30T00:33:15.575Z,30.30
2023-04-30T00:35:43.578Z,27.20
2023-04-30T00:38:12.260Z,26.10
2023-04-30T00:40:41.930Z,25.20
2023-04-30T00:43:10.014Z,25.30
2023-04-30T00:45:38.188Z,31.90
2023-04-30T00:48:06.325Z,21.10
2023-04-30T00:50:44.101Z,25.10
2023-04-30T00:53:12.653Z,27.30
2023-04-30T00:55:41.520Z,27.70
2023-04-30T00:58:09.595Z,23.80
2023-04-30T01:00:37.377Z,23.20
2023-04-30T01:03:09.369Z,19.30
2023-04-30T01:05:38.558Z,26.60
2023-04-30T01:08:06.532Z,25.20
2023-04-30T01:10:58.152Z,22.00
2023-04-30T01:13:32.170Z,18.40
2023-04-30T01:18:52.652Z,23.30
2023-04-30T01:21:21.180Z,25.70
2023-04-30T01:23:51.992Z,26.50
2023-04-30T01:27:10.819Z,19.40
2023-04-30T01:29:42.207Z,23.40
2023-04-30T01:32:11.788Z,21.70
2023-04-30T01:34:39.556Z,22.70
2023-04-30T01:37:45.082Z,23.40
2023-04-30T01:40:37.190Z,24.30
2023-04-30T01:43:30.145Z,19.50
2023-04-30T01:46:05.825Z,18.30
2023-04-30T01:49:34.174Z,22.50
2023-04-30T01:52:39.366Z,20.90
2023-04-30T01:58:02.979Z,32.90
2023-04-30T02:00:31.046Z,18.70
2023-04-30T02:03:00.081Z,22.10
2023-04-30T02:05:28.910Z,18.50
2023-04-30T02:07:57.080Z,20.10
2023-04-30T02:10:26.671Z,19.50
2023-04-30T02:12:54.542Z,20.30
2023-04-30T02:15:22.588Z,22.10
2023-04-30T02:17:54.572Z,18.80
2023-04-30T02:20:22.771Z,24.20
2023-04-30T02:22:51.446Z,17.60
2023-04-30T02:25:19.319Z,19.50
2023-04-30T02:27:47.331Z,25.00
2023-04-30T02:30:15.119Z,21.10
2023-04-30T02:32:43.081Z,23.10
2023-04-30T02:35:10.899Z,20.20
2023-04-30T02:37:38.802Z,19.30
2023-04-30T02:40:08.735Z,16.50
2023-04-30T02:42:36.558Z,19.00
2023-04-30T02:45:05.094Z,18.90
2023-04-30T02:47:32.936Z,18.40
2023-04-30T02:50:08.239Z,22.20
2023-04-30T02:52:36.106Z,19.80
2023-04-30T02:55:04.345Z,19.20
2023-04-30T02:57:32.292Z,26.60
2023-04-30T03:00:01.435Z,23.30
2023-04-30T03:02:29.453Z,20.40
2023-04-30T03:04:57.282Z,20.90
2023-04-30T03:07:25.213Z,16.30
2023-04-30T03:09:53.243Z,17.60
2023-04-30T03:12:21.278Z,20.10
2023-04-30T03:14:49.360Z,18.20
2023-04-30T03:17:17.101Z,16.00
2023-04-30T03:19:44.908Z,16.70
2023-04-30T03:22:13.227Z,20.70
2023-04-30T03:24:41.191Z,15.40
2023-04-30T03:27:09.939Z,19.10
2023-04-30T03:29:48.274Z,15.90
2023-04-30T03:32:22.551Z,17.10
2023-04-30T03:34:57.430Z,24.50
2023-04-30T03:37:29.340Z,18.00
2023-04-30T03:39:57.475Z,17.40
2023-04-30T03:42:25.411Z,22.00
2023-04-30T03:44:53.223Z,21.40
2023-04-30T03:47:21.058Z,16.00
2023-04-30T03:49:55.251Z,19.30
2023-04-30T03:52:24.003Z,11.50
2023-04-30T03:54:52.122Z,18.00
2023-04-30T03:57:21.079Z,13.60
2023-04-30T03:59:50.202Z,22.00
2023-04-30T04:02:25.996Z,16.30
2023-04-30T04:04:54.022Z,17.20
2023-04-30T04:07:21.913Z,15.00
2023-04-30T04:09:50.073Z,33.10
2023-04-30T04:12:17.919Z,18.20
2023-04-30T04:14:45.692Z,15.50
2023-04-30T04:17:14.217Z,20.00
2023-04-30T04:19:43.995Z,17.10
2023-04-30T04:22:12.566Z,16.80
2023-04-30T04:24:40.458Z,21.30
2023-04-30T04:27:08.801Z,22.10
2023-04-30T04:29:37.502Z,15.40
2023-04-30T04:34:44.242Z,14.90
2023-04-30T04:37:12.023Z,15.00
2023-04-30T04:39:39.946Z,14.30
2023-04-30T04:42:08.402Z,10.50
2023-04-30T04:44:36.507Z,10.80
2023-04-30T04:47:04.405Z,16.40
2023-04-30T04:49:32.417Z,17.60
2023-04-30T04:52:02.083Z,23.40
2023-04-30T04:54:30.038Z,18.50
2023-04-30T04:56:57.731Z,45.80
2023-04-30T04:59:26.692Z,16.20
2023-04-30T05:01:54.763Z,21.30
2023-04-30T05:04:30.500Z,17.20
2023-04-30T05:06:58.358Z,14.70
2023-04-30T05:09:26.379Z,23.20
2023-04-30T05:11:54.279Z,19.60
2023-04-30T05:14:22.530Z,20.10
2023-04-30T05:16:50.437Z,20.90
2023-04-30T05:19:18.124Z,16.80
2023-04-30T05:21:46.948Z,33.30
2023-04-30T05:24:14.836Z,24.00
2023-04-30T05:26:42.636Z,21.10
2023-04-30T05:29:12.226Z,37.60
2023-04-30T05:31:40.251Z,30.80
2023-04-30T05:34:08.289Z,12.40
2023-04-30T05:36:36.178Z,13.40
2023-04-30T05:39:04.657Z,16.60
2023-04-30T05:41:32.513Z,25.20
2023-04-30T05:44:06.643Z,17.80
2023-04-30T05:46:35.932Z,23.90
2023-04-30T05:49:03.854Z,17.50
2023-04-30T05:51:32.712Z,17.90
2023-04-30T05:54:00.604Z,23.90
2023-04-30T05:56:28.883Z,75.00
2023-04-30T05:58:56.766Z,22.00
2023-04-30T06:01:25.352Z,31.90
2023-04-30T06:03:53.276Z,19.70
2023-04-30T06:06:21.166Z,14.10
2023-04-30T06:08:51.706Z,12.30
2023-04-30T06:11:19.598Z,12.20
2023-04-30T06:16:22.259Z,18.10
2023-04-30T06:18:52.261Z,11.20
2023-04-30T06:21:21.571Z,13.60
2023-04-30T06:23:49.918Z,17.30
2023-04-30T06:26:17.936Z,15.40
2023-04-30T06:28:46.655Z,16.60
2023-04-30T06:31:14.576Z,23.20
2023-04-30T06:33:43.131Z,13.00
2023-04-30T06:36:11.032Z,28.00
2023-04-30T06:38:39.013Z,11.80
2023-04-30T06:41:07.066Z,17.70
2023-04-30T06:43:35.216Z,22.70
2023-04-30T06:46:03.926Z,13.00
2023-04-30T06:48:31.937Z,14.30
2023-04-30T06:51:03.655Z,21.30
2023-04-30T06:53:31.485Z,23.80
2023-04-30T06:55:59.355Z,16.90
2023-04-30T06:58:27.195Z,14.00
2023-04-30T07:00:54.934Z,28.10
2023-04-30T07:03:22.974Z,14.70
2023-04-30T07:05:51.813Z,17.90
2023-04-30T07:08:19.959Z,17.80
2023-04-30T07:10:47.932Z,8.70
2023-04-30T07:13:16.642Z,19.20
2023-04-30T07:15:45.225Z,14.10
2023-04-30T07:18:13.253Z,10.50
2023-04-30T07:20:42.931Z,34.20
2023-04-30T07:23:10.761Z,7.50
2023-04-30T07:25:38.603Z,14.80
2023-04-30T07:28:06.980Z,10.80
2023-04-30T07:30:34.894Z,5.90
2023-04-30T07:33:03.156Z,6.40
2023-04-30T07:35:32.607Z,7.80
2023-04-30T07:38:07.510Z,9.80
2023-04-30T07:40:36.590Z,7.10
2023-04-30T07:43:05.291Z,7.30
2023-04-30T07:45:34.827Z,8.40
2023-04-30T07:48:02.988Z,5.80
2023-04-30T07:50:34.192Z,8.00
2023-04-30T07:53:05.214Z,8.30
2023-04-30T07:55:33.063Z,7.50
2023-04-30T07:58:06.353Z,5.40
2023-04-30T08:00:34.153Z,6.20
2023-04-30T08:03:02.041Z,4.60
2023-04-30T08:05:30.251Z,8.00
2023-04-30T08:07:58.020Z,3.50
2023-04-30T08:10:26.816Z,3.20
2023-04-30T08:12:54.701Z,3.50
2023-04-30T08:15:22.948Z,6.70
2023-04-30T08:17:51.250Z,4.70
2023-04-30T08:20:19.364Z,7.70
2023-04-30T08:22:47.154Z,11.60
2023-04-30T08:25:14.999Z,8.70
2023-04-30T08:27:43.276Z,3.70
2023-04-30T08:30:11.791Z,6.70
2023-04-30T08:32:39.867Z,9.00
2023-04-30T08:35:08.681Z,4.90
2023-04-30T08:37:36.608Z,5.10
2023-04-30T08:40:04.990Z,2.90
2023-04-30T08:42:36.914Z,13.10
2023-04-30T08:45:04.950Z,4.20
2023-04-30T08:47:40.079Z,8.60
2023-04-30T08:50:08.201Z,5.20
2023-04-30T08:52:38.843Z,3.50
2023-04-30T08:55:11.288Z,4.80
2023-04-30T08:57:43.094Z,4.30
2023-04-30T09:00:11.445Z,2.60
2023-04-30T09:02:42.211Z,5.00
2023-04-30T09:05:12.677Z,6.30
2023-04-30T09:10:20.385Z,7.00
2023-04-30T09:13:12.067Z,3.30
2023-04-30T09:15:41.815Z,8.50
2023-04-30T09:18:25.060Z,2.50
2023-04-30T09:21:08.259Z,6.70
2023-04-30T09:23:36.666Z,7.60
2023-04-30T09:26:04.943Z,5.30
2023-04-30T09:28:35.593Z,2.40
2023-04-30T09:31:03.798Z,1.60
2023-04-30T09:33:46.159Z,4.20
2023-04-30T09:36:14.200Z,3.60
2023-04-30T09:38:42.433Z,3.30
2023-04-30T09:41:29.011Z,9.70
2023-04-30T09:43:59.273Z,2.90
2023-04-30T09:46:38.548Z,10.40
2023-04-30T09:49:07.406Z,2.60
2023-04-30T09:51:37.932Z,1.70
2023-04-30T09:54:09.689Z,1.50
2023-04-30T09:56:39.502Z,3.10
2023-04-30T09:59:13.641Z,2.60
2023-04-30T10:01:41.790Z,3.90
2023-04-30T10:04:10.030Z,2.20
2023-04-30T10:06:38.868Z,1.90
2023-04-30T10:09:27.324Z,2.40
2023-04-30T10:11:57.292Z,3.40
2023-04-30T10:14:29.872Z,9.60
2023-04-30T10:17:04.490Z,5.20
2023-04-30T10:19:34.637Z,4.50
2023-04-30T10:22:03.246Z,11.20
2023-04-30T10:24:31.507Z,4.40
2023-04-30T10:27:00.576Z,4.20
2023-04-30T10:29:28.429Z,10.80
2023-04-30T10:31:57.614Z,1.60
2023-04-30T10:34:35.789Z,6.00
2023-04-30T10:37:39.388Z,7.30
2023-04-30T10:40:09.984Z,4.00
2023-04-30T10:42:38.857Z,3.70
2023-04-30T10:45:10.599Z,5.50
2023-04-30T10:47:43.202Z,5.20
2023-04-30T10:50:11.752Z,6.20
2023-04-30T10:52:39.939Z,3.80
2023-04-30T10:55:09.264Z,7.80
2023-04-30T10:57:42.813Z,2.90
2023-04-30T11:00:12.427Z,10.30
2023-04-30T11:02:46.056Z,2.90
2023-04-30T11:05:19.607Z,2.90
2023-04-30T11:07:58.392Z,2.80
2023-04-30T11:10:32.558Z,1.70
2023-04-30T11:13:06.367Z,12.40
2023-04-30T11:15:41.565Z,3.90
2023-04-30T11:18:11.448Z,5.60
2023-04-30T11:21:13.751Z,1.80
2023-04-30T11:23:44.489Z,5.30
2023-04-30T11:26:12.534Z,5.20
2023-04-30T11:29:10.546Z,3.50
2023-04-30T11:31:38.516Z,4.90
2023-04-30T11:34:07.664Z,5.50
2023-04-30T11:36:36.485Z,2.20
2023-04-30T11:39:06.297Z,4.70
2023-04-30T11:41:41.818Z,3.80
2023-04-30T11:44:24.132Z,7.70
2023-04-30T11:46:52.423Z,1.90
2023-04-30T11:49:24.196Z,4.00
2023-04-30T11:51:53.240Z,6.00
2023-04-30T11:54:21.171Z,9.40
2023-04-30T11:56:50.057Z,3.80
2023-04-30T11:59:20.416Z,2.20
2023-04-30T12:01:51.074Z,12.50
2023-04-30T12:04:19.258Z,11.90
2023-04-30T12:06:47.564Z,5.10
2023-04-30T12:09:15.725Z,16.20
2023-04-30T12:11:44.015Z,6.60
2023-04-30T12:14:12.635Z,22.70
2023-04-30T12:16:55.607Z,11.00
2023-04-30T12:19:26.957Z,2.60
2023-04-30T12:21:58.192Z,14.90
2023-04-30T12:24:27.642Z,7.90
2023-04-30T12:26:55.794Z,10.30
2023-04-30T12:29:25.775Z,15.20
2023-04-30T12:31:54.135Z,4.60
2023-04-30T12:34:26.920Z,5.00
2023-04-30T12:36:58.458Z,5.50
2023-04-30T12:39:37.195Z,6.40
2023-04-30T12:42:08.234Z,5.10
2023-04-30T12:44:45.581Z,3.70
2023-04-30T12:47:14.487Z,4.80
2023-04-30T12:49:47.535Z,8.70
2023-04-30T12:52:19.533Z,8.70
2023-04-30T12:54:47.659Z,5.70
2023-04-30T12:57:15.895Z,5.90
2023-04-30T12:59:53.806Z,5.70
2023-04-30T13:02:27.351Z,4.30
2023-04-30T13:04:55.827Z,12.30
2023-04-30T13:07:24.578Z,9.60
2023-04-30T13:09:52.728Z,9.00
2023-04-30T13:12:21.045Z,8.20
2023-04-30T13:14:50.057Z,6.90
2023-04-30T13:17:18.376Z,5.60
2023-04-30T13:19:46.226Z,10.50
2023-04-30T13:22:14.950Z,4.90
2023-04-30T13:24:45.030Z,4.10
2023-04-30T13:27:12.921Z,5.30
2023-04-30T13:29:42.056Z,4.80
2023-04-30T13:32:10.359Z,4.80
2023-04-30T13:34:38.186Z,9.90
2023-04-30T13:37:06.112Z,5.60
2023-04-30T13:39:34.014Z,8.60
2023-04-30T13:42:03.840Z,7.50
2023-04-30T13:44:33.866Z,7.10
2023-04-30T13:47:01.725Z,4.10
2023-04-30T13:49:30.291Z,4.90
2023-04-30T13:51:58.608Z,8.30
2023-04-30T13:54:26.439Z,4.60
2023-04-30T13:56:54.483Z,6.40
2023-04-30T13:59:22.502Z,10.70
2023-04-30T14:01:50.367Z,7.20
2023-04-30T14:05:02.038Z,10.00
2023-04-30T14:07:33.817Z,5.20
2023-04-30T14:10:02.056Z,4.10
2023-04-30T14:12:30.866Z,4.90
2023-04-30T14:15:06.010Z,6.30
2023-04-30T14:17:41.183Z,3.60
2023-04-30T14:20:16.336Z,5.90
2023-04-30T14:22:51.421Z,4.00
2023-04-30T14:25:24.050Z,4.60
2023-04-30T14:27:51.984Z,6.40
2023-04-30T14:30:20.489Z,2.70
2023-04-30T14:32:48.579Z,11.30
2023-04-30T14:35:16.520Z,8.00
2023-04-30T14:37:44.220Z,8.80
2023-04-30T14:40:12.782Z,4.50
2023-04-30T14:42:40.710Z,7.60
2023-04-30T14:45:09.541Z,5.30
2023-04-30T14:47:37.632Z,4.80
2023-04-30T14:50:06.198Z,2.80
2023-04-30T14:52:33.966Z,9.10
2023-04-30T14:55:03.354Z,9.70
2023-04-30T14:57:33.606Z,3.50
2023-04-30T15:00:01.966Z,13.80
2023-04-30T15:02:29.970Z,3.90
2023-04-30T15:04:57.928Z,6.90
2023-04-30T15:07:25.788Z,5.20
2023-04-30T15:09:53.731Z,3.00
2023-04-30T15:12:22.536Z,10.40
2023-04-30T15:14:50.701Z,6.40
2023-04-30T15:17:18.662Z,4.20
2023-04-30T15:19:46.564Z,2.60
2023-04-30T15:22:14.499Z,3.60
2023-04-30T15:24:42.442Z,3.20
2023-04-30T15:27:10.271Z,3.00
2023-04-30T15:29:40.389Z,3.90
2023-04-30T15:32:08.346Z,6.00
2023-04-30T15:34:36.116Z,11.50
2023-04-30T15:37:04.001Z,6.40
2023-04-30T15:39:31.983Z,4.40
2023-04-30T15:41:59.841Z,5.60
2023-04-30T15:44:27.903Z,6.80
2023-04-30T15:46:58.563Z,8.50
2023-04-30T15:49:26.771Z,5.30
2023-04-30T15:54:56.113Z,13.70
